createdAt,value
2024-03-23T00:00:31.275Z,78.72
2024-03-23T00:02:57.588Z,78.59
2024-03-23T00:05:23.968Z,78.49
2024-03-23T00:07:50.276Z,78.53
2024-03-23T00:10:16.580Z,78.42
2024-03-23T00:12:42.956Z,78.52
2024-03-23T00:15:09.243Z,78.37
2024-03-23T00:17:35.574Z,78.38
2024-03-23T00:20:01.900Z,78.43
2024-03-23T00:22:28.203Z,78.47
2024-03-23T00:24:54.620Z,78.46
2024-03-23T00:27:20.916Z,78.34
2024-03-23T00:29:47.216Z,78.37
2024-03-23T00:32:13.522Z,78.34
2024-03-23T00:34:39.848Z,78.29
2024-03-23T00:37:06.178Z,78.31
2024-03-23T00:39:32.481Z,78.26
2024-03-23T00:42:01.326Z,78.43
2024-03-23T00:44:27.837Z,78.22
2024-03-23T00:46:54.278Z,78.35
2024-03-23T00:49:20.726Z,78.30
2024-03-23T00:51:47.032Z,78.36
2024-03-23T00:54:13.340Z,78.44
2024-03-23T00:56:39.639Z,78.42
2024-03-23T00:59:05.986Z,78.45
2024-03-23T01:01:32.304Z,78.40
2024-03-23T01:03:58.601Z,78.38
2024-03-23T01:06:24.926Z,78.58
2024-03-23T01:08:51.277Z,78.58
2024-03-23T01:11:17.624Z,78.54
2024-03-23T01:13:43.944Z,78.72
2024-03-23T01:16:10.271Z,78.74
2024-03-23T01:18:36.605Z,78.71
2024-03-23T01:21:02.900Z,78.84
2024-03-23T01:23:29.207Z,78.88
2024-03-23T01:25:55.502Z,78.84
2024-03-23T01:28:21.805Z,78.92
2024-03-23T01:30:48.109Z,78.95
2024-03-23T01:33:14.414Z,78.96
2024-03-23T01:35:40.723Z,78.96
2024-03-23T01:38:07.040Z,78.97
2024-03-23T01:40:33.360Z,78.96
2024-03-23T01:42:59.679Z,79.01
2024-03-23T01:45:25.993Z,78.99
2024-03-23T01:47:52.318Z,78.98
2024-03-23T01:50:18.619Z,78.85
2024-03-23T01:52:44.926Z,78.97
2024-03-23T01:55:11.226Z,78.95
2024-03-23T01:57:37.540Z,78.95
2024-03-23T02:00:03.843Z,78.94
2024-03-23T02:02:30.157Z,78.97
2024-03-23T02:04:56.509Z,78.89
2024-03-23T02:07:22.850Z,79.00
2024-03-23T02:09:49.189Z,79.09
2024-03-23T02:12:15.551Z,79.10
2024-03-23T02:14:41.881Z,79.19
2024-03-23T02:17:08.193Z,79.06
2024-03-23T02:19:34.524Z,79.02
2024-03-23T02:22:00.847Z,79.32
2024-03-23T02:24:27.184Z,79.20
2024-03-23T02:26:53.523Z,79.40
2024-03-23T02:29:19.835Z,79.36
2024-03-23T02:31:46.213Z,79.41
2024-03-23T02:34:12.533Z,79.36
2024-03-23T02:36:38.861Z,79.36
2024-03-23T02:39:05.187Z,79.59
2024-03-23T02:41:31.480Z,79.72
2024-03-23T02:43:57.820Z,79.67
2024-03-23T02:46:24.128Z,79.67
2024-03-23T02:48:50.482Z,79.59
2024-03-23T02:51:16.794Z,79.66
2024-03-23T02:53:43.122Z,79.58
2024-03-23T02:56:09.464Z,79.70
2024-03-23T02:58:35.797Z,79.67
2024-03-23T03:01:02.123Z,79.73
2024-03-23T03:03:28.485Z,79.86
2024-03-23T03:05:54.797Z,79.87
2024-03-23T03:08:21.159Z,79.92
2024-03-23T03:10:47.455Z,79.97
2024-03-23T03:13:13.761Z,80.03
2024-03-23T03:15:40.062Z,79.98
2024-03-23T03:18:06.351Z,80.12
2024-03-23T03:20:32.757Z,80.18
2024-03-23T03:22:59.096Z,80.22
2024-03-23T03:25:25.429Z,80.46
2024-03-23T03:27:51.774Z,80.53
2024-03-23T03:30:18.105Z,80.54
2024-03-23T03:32:44.435Z,80.57
2024-03-23T03:35:10.743Z,80.75
2024-03-23T03:37:37.107Z,80.86
2024-03-23T03:40:03.405Z,80.95
2024-03-23T03:42:29.789Z,80.96
2024-03-23T03:44:56.158Z,81.00
2024-03-23T03:47:22.510Z,81.11
2024-03-23T03:49:48.822Z,81.27
2024-03-23T03:52:15.131Z,81.37
2024-03-23T03:54:41.453Z,81.37
2024-03-23T03:57:07.768Z,81.46
2024-03-23T03:59:34.129Z,81.44
2024-03-23T04:02:00.449Z,81.54
2024-03-23T04:04:26.999Z,81.71
2024-03-23T04:06:53.330Z,81.67
2024-03-23T04:09:19.643Z,81.78
2024-03-23T04:11:45.933Z,81.87
2024-03-23T04:14:12.235Z,81.91
2024-03-23T04:16:38.541Z,81.94
2024-03-23T04:19:04.877Z,81.98
2024-03-23T04:21:31.232Z,82.11
2024-03-23T04:23:57.667Z,82.20
2024-03-23T04:26:23.989Z,82.21
2024-03-23T04:28:50.304Z,82.29
2024-03-23T04:31:16.642Z,82.40
2024-03-23T04:33:42.959Z,82.48
2024-03-23T04:36:09.296Z,82.41
2024-03-23T04:38:35.693Z,82.43
2024-03-23T04:41:02.050Z,82.42
2024-03-23T04:43:28.417Z,82.70
2024-03-23T04:45:54.748Z,82.88
2024-03-23T04:48:21.067Z,82.78
2024-03-23T04:50:47.422Z,83.09
2024-03-23T04:53:13.764Z,83.13
2024-03-23T04:55:40.055Z,83.00
2024-03-23T04:58:06.547Z,83.08
2024-03-23T05:00:32.897Z,83.28
2024-03-23T05:02:59.237Z,83.24
2024-03-23T05:05:25.550Z,83.13
2024-03-23T05:07:51.875Z,83.22
2024-03-23T05:10:18.220Z,83.44
2024-03-23T05:12:44.534Z,83.25
2024-03-23T05:15:10.861Z,83.60
2024-03-23T05:17:37.261Z,83.58
2024-03-23T05:20:03.586Z,83.79
2024-03-23T05:22:29.911Z,83.87
2024-03-23T05:24:56.264Z,83.93
2024-03-23T05:27:22.559Z,83.82
2024-03-23T05:29:48.853Z,83.83
2024-03-23T05:32:15.142Z,83.87
2024-03-23T05:34:41.438Z,83.85
2024-03-23T05:37:08.012Z,83.87
2024-03-23T05:39:34.343Z,83.72
2024-03-23T05:42:00.640Z,83.80
2024-03-23T05:44:26.969Z,83.79
2024-03-23T05:46:53.285Z,83.82
2024-03-23T05:49:19.581Z,83.88
2024-03-23T05:51:45.938Z,83.98
2024-03-23T05:54:12.239Z,84.02
2024-03-23T05:56:38.723Z,84.09
2024-03-23T05:59:05.022Z,84.05
2024-03-23T06:01:31.340Z,84.10
2024-03-23T06:03:57.665Z,84.13
2024-03-23T06:06:23.992Z,84.50
2024-03-23T06:08:50.336Z,84.26
2024-03-23T06:11:16.656Z,84.54
2024-03-23T06:13:42.957Z,84.61
2024-03-23T06:16:09.451Z,84.66
2024-03-23T06:18:35.778Z,84.56
2024-03-23T06:21:02.075Z,84.69
2024-03-23T06:23:28.416Z,84.66
2024-03-23T06:25:54.775Z,84.75
2024-03-23T06:28:21.083Z,84.99
2024-03-23T06:30:47.446Z,84.83
2024-03-23T06:33:13.740Z,84.71
2024-03-23T06:35:40.136Z,84.71
2024-03-23T06:38:06.617Z,84.83
2024-03-23T06:40:33.001Z,84.71
2024-03-23T06:42:59.320Z,84.72
2024-03-23T06:45:25.639Z,84.61
2024-03-23T06:47:51.957Z,84.51
2024-03-23T06:50:18.266Z,84.47
2024-03-23T06:52:44.569Z,84.44
2024-03-23T06:55:11.141Z,84.48
2024-03-23T06:57:37.483Z,84.38
2024-03-23T07:00:06.200Z,84.32
2024-03-23T07:02:32.570Z,84.46
2024-03-23T07:04:58.881Z,84.29
2024-03-23T07:07:25.213Z,84.08
2024-03-23T07:09:51.738Z,84.06
2024-03-23T07:12:18.063Z,84.10
2024-03-23T07:14:44.384Z,83.99
2024-03-23T07:17:10.736Z,84.07
2024-03-23T07:19:37.076Z,84.17
2024-03-23T07:22:03.401Z,84.01
2024-03-23T07:24:29.712Z,83.97
2024-03-23T07:26:56.024Z,84.14
2024-03-23T07:29:22.341Z,84.27
2024-03-23T07:31:48.673Z,84.14
2024-03-23T07:34:14.995Z,84.05
2024-03-23T07:36:41.316Z,84.01
2024-03-23T07:39:12.976Z,83.93
2024-03-23T07:41:39.667Z,84.06
2024-03-23T07:44:05.994Z,84.03
2024-03-23T07:46:32.321Z,83.95
2024-03-23T07:48:58.656Z,84.09
2024-03-23T07:51:24.986Z,83.97
2024-03-23T07:53:51.317Z,83.99
2024-03-23T07:56:17.636Z,83.82
2024-03-23T07:58:44.147Z,83.82
2024-03-23T08:01:10.485Z,83.63
2024-03-23T08:03:39.744Z,83.65
2024-03-23T08:06:06.055Z,83.61
2024-03-23T08:08:32.481Z,83.45
2024-03-23T08:10:58.790Z,83.53
2024-03-23T08:13:25.090Z,83.56
2024-03-23T08:15:51.426Z,83.54
2024-03-23T08:18:17.774Z,83.36
2024-03-23T08:20:44.230Z,83.33
2024-03-23T08:23:10.563Z,83.61
2024-03-23T08:25:36.937Z,83.38
2024-03-23T08:28:03.263Z,83.51
2024-03-23T08:30:29.591Z,83.66
2024-03-23T08:32:55.919Z,83.45
2024-03-23T08:35:22.243Z,83.52
2024-03-23T08:37:48.559Z,83.21
2024-03-23T08:40:14.944Z,83.21
2024-03-23T08:42:41.314Z,83.05
2024-03-23T08:45:07.616Z,82.91
2024-03-23T08:47:33.939Z,82.59
2024-03-23T08:50:00.367Z,82.53
2024-03-23T08:52:26.806Z,82.42
2024-03-23T08:54:53.117Z,82.38
2024-03-23T08:57:19.435Z,82.08
2024-03-23T08:59:45.748Z,82.01
2024-03-23T09:02:12.154Z,82.00
2024-03-23T09:04:38.573Z,81.89
2024-03-23T09:07:04.887Z,81.77
2024-03-23T09:09:31.217Z,81.64
2024-03-23T09:11:57.552Z,81.36
2024-03-23T09:14:24.012Z,81.16
2024-03-23T09:16:50.358Z,81.28
2024-03-23T09:19:18.271Z,81.01
2024-03-23T09:21:44.572Z,80.91
2024-03-23T09:24:10.891Z,80.68
2024-03-23T09:26:37.267Z,80.38
2024-03-23T09:29:03.605Z,80.24
2024-03-23T09:31:29.921Z,80.37
2024-03-23T09:33:56.275Z,80.26
2024-03-23T09:36:22.586Z,80.34
2024-03-23T09:38:49.185Z,80.07
2024-03-23T09:41:15.529Z,79.96
2024-03-23T09:43:41.864Z,79.98
2024-03-23T09:46:08.160Z,79.94
2024-03-23T09:48:34.507Z,79.76
2024-03-23T09:51:00.850Z,79.56
2024-03-23T09:53:27.273Z,79.33
2024-03-23T09:55:53.584Z,79.66
2024-03-23T09:58:20.004Z,79.81
2024-03-23T10:00:46.354Z,79.82
2024-03-23T10:03:12.647Z,79.63
2024-03-23T10:05:41.771Z,79.59
2024-03-23T10:08:11.301Z,79.59
2024-03-23T10:10:37.622Z,79.52
2024-03-23T10:13:03.948Z,79.44
2024-03-23T10:15:30.366Z,79.38
2024-03-23T10:17:56.797Z,79.24
2024-03-23T10:20:23.108Z,79.27
2024-03-23T10:22:49.441Z,79.05
2024-03-23T10:25:15.891Z,79.09
2024-03-23T10:27:42.238Z,79.01
2024-03-23T10:30:08.560Z,78.97
2024-03-23T10:32:34.914Z,78.74
2024-03-23T10:35:01.271Z,78.74
2024-03-23T10:37:27.598Z,78.71
2024-03-23T10:39:53.898Z,78.66
2024-03-23T10:42:20.344Z,78.61
2024-03-23T10:44:46.680Z,78.75
2024-03-23T10:47:13.011Z,78.66
2024-03-23T10:49:39.351Z,78.53
2024-03-23T10:52:05.732Z,78.17
2024-03-23T10:54:32.120Z,78.13
2024-03-23T10:56:58.491Z,77.93
2024-03-23T10:59:24.823Z,77.86
2024-03-23T11:01:51.196Z,77.79
2024-03-23T11:04:17.522Z,77.63
2024-03-23T11:06:43.904Z,77.40
2024-03-23T11:09:10.241Z,77.39
2024-03-23T11:11:36.571Z,77.11
2024-03-23T11:14:02.864Z,77.03
2024-03-23T11:16:29.189Z,76.76
2024-03-23T11:18:55.510Z,76.51
2024-03-23T11:21:21.907Z,76.45
2024-03-23T11:23:48.227Z,75.98
2024-03-23T11:26:14.560Z,75.71
2024-03-23T11:28:40.896Z,75.73
2024-03-23T11:31:07.218Z,75.39
2024-03-23T11:33:33.557Z,75.02
2024-03-23T11:36:00.104Z,75.04
2024-03-23T11:38:26.422Z,75.18
2024-03-23T11:40:52.984Z,75.25
2024-03-23T11:43:19.294Z,75.12
2024-03-23T11:45:45.645Z,74.66
2024-03-23T11:48:11.985Z,74.43
2024-03-23T11:50:38.299Z,73.98
2024-03-23T11:53:04.683Z,73.82
2024-03-23T11:55:30.984Z,73.55
2024-03-23T11:57:57.320Z,73.29
2024-03-23T12:00:23.657Z,73.04
2024-03-23T12:02:49.961Z,73.06
2024-03-23T12:05:16.378Z,73.14
2024-03-23T12:07:42.917Z,72.79
2024-03-23T12:10:09.214Z,72.71
2024-03-23T12:12:35.524Z,72.84
2024-03-23T12:15:01.890Z,73.04
2024-03-23T12:17:28.229Z,72.96
2024-03-23T12:19:54.531Z,72.89
2024-03-23T12:22:20.853Z,72.68
2024-03-23T12:24:47.164Z,72.97
2024-03-23T12:27:13.519Z,72.66
2024-03-23T12:29:39.869Z,72.55
2024-03-23T12:32:06.279Z,71.92
2024-03-23T12:34:32.616Z,71.73
2024-03-23T12:36:58.924Z,71.22
2024-03-23T12:39:25.225Z,71.25
2024-03-23T12:41:51.555Z,70.95
2024-03-23T12:44:18.837Z,70.92
2024-03-23T12:46:45.318Z,70.38
2024-03-23T12:49:14.680Z,70.01
2024-03-23T12:51:40.995Z,70.27
2024-03-23T12:54:07.500Z,70.47
2024-03-23T12:56:33.933Z,70.45
2024-03-23T12:59:00.239Z,70.16
2024-03-23T13:01:26.666Z,69.87
2024-03-23T13:03:52.982Z,69.92
2024-03-23T13:06:19.276Z,69.92
2024-03-23T13:08:45.595Z,69.50
2024-03-23T13:11:11.885Z,69.37
2024-03-23T13:13:38.174Z,68.97
2024-03-23T13:16:04.479Z,68.62
2024-03-23T13:18:30.783Z,68.68
2024-03-23T13:20:57.103Z,68.64
2024-03-23T13:23:23.415Z,68.23
2024-03-23T13:25:49.712Z,67.68
2024-03-23T13:28:16.048Z,67.75
2024-03-23T13:30:42.425Z,67.40
2024-03-23T13:33:08.762Z,67.47
2024-03-23T13:35:35.081Z,66.91
2024-03-23T13:38:01.415Z,67.49
2024-03-23T13:40:27.751Z,67.64
2024-03-23T13:42:54.078Z,66.63
2024-03-23T13:45:20.399Z,67.00
2024-03-23T13:47:46.784Z,66.80
2024-03-23T13:50:13.098Z,66.79
2024-03-23T13:52:39.407Z,66.19
2024-03-23T13:55:05.729Z,65.46
2024-03-23T13:57:32.054Z,65.70
2024-03-23T13:59:58.520Z,65.56
2024-03-23T14:02:24.823Z,65.50
2024-03-23T14:04:51.169Z,65.15
2024-03-23T14:07:17.493Z,64.93
2024-03-23T14:09:43.827Z,64.78
2024-03-23T14:12:10.145Z,64.76
2024-03-23T14:14:36.474Z,64.48
2024-03-23T14:17:02.809Z,64.55
2024-03-23T14:19:29.317Z,64.40
2024-03-23T14:21:55.624Z,64.19
2024-03-23T14:24:21.939Z,63.88
2024-03-23T14:26:48.280Z,63.47
2024-03-23T14:29:14.612Z,63.33
2024-03-23T14:31:41.068Z,63.42
2024-03-23T14:34:07.384Z,63.53
2024-03-23T14:36:33.694Z,63.48
2024-03-23T14:39:00.207Z,63.38
2024-03-23T14:41:26.505Z,63.10
2024-03-23T14:43:52.907Z,63.05
2024-03-23T14:46:19.218Z,62.17
2024-03-23T14:48:45.529Z,62.15
2024-03-23T14:51:11.869Z,62.38
2024-03-23T14:53:38.178Z,62.22
2024-03-23T14:56:04.513Z,62.05
2024-03-23T14:58:31.015Z,61.93
2024-03-23T15:00:57.350Z,61.34
2024-03-23T15:03:23.670Z,61.08
2024-03-23T15:05:50.015Z,60.85
2024-03-23T15:08:16.386Z,61.51
2024-03-23T15:10:42.683Z,61.38
2024-03-23T15:13:08.995Z,61.14
2024-03-23T15:15:35.306Z,61.22
2024-03-23T15:18:01.932Z,61.16
2024-03-23T15:20:28.235Z,61.30
2024-03-23T15:22:54.541Z,61.51
2024-03-23T15:25:20.863Z,61.34
2024-03-23T15:27:49.570Z,61.55
2024-03-23T15:30:17.945Z,61.22
2024-03-23T15:32:44.306Z,61.04
2024-03-23T15:35:10.596Z,60.60
2024-03-23T15:37:36.911Z,61.27
2024-03-23T15:40:03.221Z,61.30
2024-03-23T15:42:29.570Z,61.48
2024-03-23T15:44:55.889Z,61.35
2024-03-23T15:47:22.203Z,61.46
2024-03-23T15:49:48.533Z,61.41
2024-03-23T15:52:14.861Z,61.44
2024-03-23T15:54:41.157Z,61.52
2024-03-23T15:57:07.469Z,61.55
2024-03-23T15:59:33.922Z,61.48
2024-03-23T16:02:00.236Z,61.74
2024-03-23T16:04:26.563Z,61.77
2024-03-23T16:06:52.862Z,61.85
2024-03-23T16:09:19.194Z,61.93
2024-03-23T16:11:45.538Z,62.06
2024-03-23T16:14:11.849Z,62.11
2024-03-23T16:16:38.200Z,62.19
2024-03-23T16:19:04.514Z,62.30
2024-03-23T16:21:31.048Z,62.24
2024-03-23T16:23:57.376Z,62.46
2024-03-23T16:26:23.705Z,62.36
2024-03-23T16:28:50.050Z,62.24
2024-03-23T16:31:16.377Z,62.39
2024-03-23T16:33:42.717Z,62.44
2024-03-23T16:36:09.085Z,62.68
2024-03-23T16:38:35.599Z,62.66
2024-03-23T16:41:01.958Z,62.56
2024-03-23T16:43:28.277Z,62.69
2024-03-23T16:45:54.600Z,62.73
2024-03-23T16:48:20.917Z,62.69
2024-03-23T16:50:47.229Z,62.91
2024-03-23T16:53:13.538Z,63.08
2024-03-23T16:55:39.883Z,63.16
2024-03-23T16:58:06.366Z,63.07
2024-03-23T17:00:32.732Z,63.38
2024-03-23T17:02:59.159Z,63.56
2024-03-23T17:05:25.459Z,63.77
2024-03-23T17:07:51.773Z,64.24
2024-03-23T17:10:18.089Z,64.44
2024-03-23T17:12:44.448Z,64.79
2024-03-23T17:15:13.026Z,65.17
2024-03-23T17:17:41.045Z,65.42
2024-03-23T17:20:07.545Z,65.64
2024-03-23T17:22:33.862Z,65.80
2024-03-23T17:25:00.265Z,65.99
2024-03-23T17:27:26.668Z,66.36
2024-03-23T17:29:53.060Z,67.27
2024-03-23T17:32:19.366Z,67.92
2024-03-23T17:34:45.669Z,68.67
2024-03-23T17:37:12.003Z,68.85
2024-03-23T17:39:38.623Z,69.43
2024-03-23T17:42:04.947Z,69.65
2024-03-23T17:44:31.272Z,70.74
2024-03-23T17:46:57.603Z,70.88
2024-03-23T17:49:23.908Z,71.27
2024-03-23T17:51:50.289Z,72.21
2024-03-23T17:54:16.612Z,72.00
2024-03-23T17:56:42.928Z,72.51
2024-03-23T17:59:09.392Z,72.96
2024-03-23T18:01:35.724Z,74.77
2024-03-23T18:04:02.047Z,75.60
2024-03-23T18:06:28.396Z,74.87
2024-03-23T18:08:54.698Z,74.99
2024-03-23T18:11:20.989Z,75.57
2024-03-23T18:13:47.306Z,75.59
2024-03-23T18:16:16.220Z,75.79
2024-03-23T18:18:44.422Z,76.03
2024-03-23T18:21:10.728Z,76.12
2024-03-23T18:23:39.032Z,76.22
2024-03-23T18:26:05.512Z,76.26
2024-03-23T18:28:31.827Z,76.29
2024-03-23T18:30:58.143Z,76.43
2024-03-23T18:33:24.565Z,76.60
2024-03-23T18:35:50.897Z,76.89
2024-03-23T18:38:17.195Z,76.85
2024-03-23T18:40:43.510Z,77.06
2024-03-23T18:43:09.883Z,77.30
2024-03-23T18:45:36.214Z,77.40
2024-03-23T18:48:05.018Z,77.66
2024-03-23T18:50:31.719Z,77.72
2024-03-23T18:52:58.032Z,77.96
2024-03-23T18:55:24.589Z,78.17
2024-03-23T18:57:50.941Z,78.29
2024-03-23T19:00:17.244Z,78.79
2024-03-23T19:02:43.556Z,78.87
2024-03-23T19:05:09.962Z,78.62
2024-03-23T19:07:36.275Z,78.66
2024-03-23T19:10:02.925Z,78.94
2024-03-23T19:12:29.295Z,78.99
2024-03-23T19:14:55.654Z,79.25
2024-03-23T19:17:22.011Z,79.49
2024-03-23T19:19:49.147Z,79.45
2024-03-23T19:22:15.471Z,79.72
2024-03-23T19:24:42.011Z,79.88
2024-03-23T19:27:08.316Z,79.66
2024-03-23T19:29:34.624Z,79.99
2024-03-23T19:32:00.967Z,80.12
2024-03-23T19:34:27.278Z,80.39
2024-03-23T19:36:53.605Z,80.53
2024-03-23T19:39:19.912Z,80.34
2024-03-23T19:41:46.218Z,80.45
2024-03-23T19:44:12.712Z,80.48
2024-03-23T19:46:39.083Z,80.53
2024-03-23T19:49:05.413Z,80.36
2024-03-23T19:51:31.728Z,80.39
2024-03-23T19:53:58.567Z,80.32
2024-03-23T19:56:26.089Z,80.37
2024-03-23T19:58:52.439Z,80.25
2024-03-23T20:01:18.779Z,80.43
2024-03-23T20:03:45.083Z,80.61
2024-03-23T20:06:11.437Z,80.23
2024-03-23T20:08:37.751Z,79.60
2024-03-23T20:11:04.104Z,79.49
2024-03-23T20:13:30.402Z,79.39
2024-03-23T20:15:56.714Z,79.15
2024-03-23T20:18:23.069Z,77.97
2024-03-23T20:20:49.385Z,77.23
2024-03-23T20:23:15.707Z,75.94
2024-03-23T20:25:42.020Z,74.84
2024-03-23T20:28:08.331Z,74.70
2024-03-23T20:30:34.646Z,74.72
2024-03-23T20:33:00.951Z,74.40
2024-03-23T20:35:27.272Z,74.59
2024-03-23T20:37:53.557Z,74.79
2024-03-23T20:40:19.879Z,74.49
2024-03-23T20:42:46.205Z,74.53
2024-03-23T20:45:12.523Z,74.47
2024-03-23T20:47:38.830Z,74.44
2024-03-23T20:50:05.122Z,74.58
2024-03-23T20:52:31.436Z,74.75
2024-03-23T20:54:57.770Z,74.85
2024-03-23T20:57:24.105Z,75.04
2024-03-23T20:59:50.431Z,75.20
2024-03-23T21:02:16.819Z,75.37
2024-03-23T21:04:43.121Z,75.83
2024-03-23T21:07:09.443Z,76.24
2024-03-23T21:09:37.081Z,76.33
2024-03-23T21:12:04.562Z,76.60
2024-03-23T21:14:30.896Z,76.74
2024-03-23T21:16:57.184Z,77.00
2024-03-23T21:19:23.499Z,77.02
2024-03-23T21:21:49.807Z,76.96
2024-03-23T21:24:16.167Z,76.79
2024-03-23T21:26:42.501Z,76.44
2024-03-23T21:29:08.810Z,76.11
2024-03-23T21:31:35.145Z,75.58
2024-03-23T21:34:01.509Z,75.64
2024-03-23T21:36:27.812Z,75.64
2024-03-23T21:38:54.130Z,75.63
2024-03-23T21:41:20.454Z,75.83
2024-03-23T21:43:46.845Z,76.12
2024-03-23T21:46:13.293Z,76.22
2024-03-23T21:48:39.614Z,76.41
2024-03-23T21:51:06.003Z,76.46
2024-03-23T21:53:32.320Z,76.46
2024-03-23T21:55:58.641Z,76.62
2024-03-23T21:58:24.971Z,76.66
2024-03-23T22:00:51.299Z,76.94
2024-03-23T22:03:17.654Z,77.14
2024-03-23T22:05:43.998Z,77.15
2024-03-23T22:08:10.328Z,77.32
2024-03-23T22:10:39.604Z,77.28
2024-03-23T22:13:07.151Z,77.46
2024-03-23T22:15:33.498Z,77.72
2024-03-23T22:17:59.818Z,77.98
2024-03-23T22:20:26.124Z,77.83
2024-03-23T22:22:52.448Z,77.97
2024-03-23T22:25:18.871Z,78.15
2024-03-23T22:27:45.186Z,78.15
2024-03-23T22:30:11.494Z,78.40
2024-03-23T22:32:37.794Z,78.28
2024-03-23T22:35:04.108Z,78.20
2024-03-23T22:37:30.414Z,77.93
2024-03-23T22:39:56.736Z,78.19
2024-03-23T22:42:23.044Z,78.40
2024-03-23T22:44:49.332Z,78.48
2024-03-23T22:47:15.643Z,78.39
2024-03-23T22:49:41.954Z,78.48
2024-03-23T22:52:08.290Z,78.52
2024-03-23T22:54:34.595Z,78.74
2024-03-23T22:57:00.891Z,79.23
2024-03-23T22:59:27.219Z,79.17
2024-03-23T23:01:53.520Z,79.06
2024-03-23T23:04:19.891Z,79.15
2024-03-23T23:06:46.200Z,79.15
2024-03-23T23:09:12.502Z,79.21
2024-03-23T23:11:38.816Z,79.51
2024-03-23T23:14:05.132Z,79.44
2024-03-23T23:16:31.482Z,79.62
2024-03-23T23:18:57.859Z,79.59
2024-03-23T23:21:24.182Z,79.45
2024-03-23T23:23:50.830Z,79.14
2024-03-23T23:26:17.144Z,79.14
2024-03-23T23:28:43.439Z,79.12
2024-03-23T23:31:09.795Z,79.38
2024-03-23T23:33:36.122Z,79.49
2024-03-23T23:36:02.457Z,80.03
2024-03-23T23:38:28.794Z,80.64
2024-03-23T23:40:55.140Z,80.82
2024-03-23T23:43:21.586Z,80.25
2024-03-23T23:45:47.892Z,80.32
2024-03-23T23:48:14.233Z,80.01
2024-03-23T23:50:41.329Z,79.84
2024-03-23T23:53:07.754Z,79.71
2024-03-23T23:55:34.086Z,79.65
2024-03-23T23:58:00.417Z,79.64
